createdAt,value
2023-03-13T00:01:35.454Z,1.90
2023-03-13T00:04:02.163Z,1.98
2023-03-13T00:06:35.455Z,2.04
2023-03-13T00:09:03.916Z,2.05
2023-03-13T00:11:30.595Z,2.11
2023-03-13T00:13:59.502Z,2.08
2023-03-13T00:16:27.654Z,2.02
2023-03-13T00:18:55.685Z,2.04
2023-03-13T00:21:25.092Z,2.02
2023-03-13T00:23:52.141Z,2.13
2023-03-13T00:26:21.152Z,2.07
2023-03-13T00:28:48.908Z,2.07
2023-03-13T00:31:18.118Z,2.05
2023-03-13T00:33:47.198Z,2.05
2023-03-13T00:36:17.084Z,2.01
2023-03-13T00:38:44.561Z,2.00
2023-03-13T00:41:13.948Z,1.97
2023-03-13T00:43:42.479Z,1.84
2023-03-13T00:46:10.842Z,1.83
2023-03-13T00:48:37.439Z,1.85
2023-03-13T00:51:05.074Z,1.89
2023-03-13T00:53:32.096Z,1.91
2023-03-13T00:56:00.091Z,1.79
2023-03-13T00:58:29.183Z,1.68
2023-03-13T01:00:56.779Z,1.63
2023-03-13T01:03:25.800Z,1.57
2023-03-13T01:05:58.017Z,1.59
2023-03-13T01:08:24.843Z,1.60
2023-03-13T01:10:57.383Z,1.59
2023-03-13T01:13:23.950Z,1.54
2023-03-13T01:15:50.543Z,1.49
2023-03-13T01:18:17.174Z,1.49
2023-03-13T01:20:43.754Z,1.46
2023-03-13T01:23:10.323Z,1.38
2023-03-13T01:25:38.215Z,1.34
2023-03-13T01:28:05.028Z,1.30
2023-03-13T01:30:32.175Z,1.24
2023-03-13T01:32:58.761Z,1.20
2023-03-13T01:35:25.362Z,1.09
2023-03-13T01:37:52.086Z,1.06
2023-03-13T01:40:18.687Z,1.06
2023-03-13T01:42:54.493Z,0.98
2023-03-13T01:45:53.529Z,0.87
2023-03-13T01:48:37.531Z,0.72
2023-03-13T01:51:06.595Z,0.66
2023-03-13T01:53:36.927Z,0.55
2023-03-13T01:56:08.020Z,0.47
2023-03-13T01:58:35.864Z,0.50
2023-03-13T02:01:03.674Z,0.40
2023-03-13T02:03:30.883Z,0.47
2023-03-13T02:05:59.822Z,0.64
2023-03-13T02:08:37.860Z,0.68
2023-03-13T02:11:13.821Z,0.68
2023-03-13T02:13:40.603Z,0.65
2023-03-13T02:16:08.440Z,0.66
2023-03-13T02:18:37.743Z,0.66
2023-03-13T02:21:20.531Z,0.63
2023-03-13T02:23:58.883Z,0.64
2023-03-13T02:26:25.680Z,0.66
2023-03-13T02:28:52.306Z,0.62
2023-03-13T02:31:18.943Z,0.66
2023-03-13T02:33:45.596Z,0.75
2023-03-13T02:36:14.847Z,0.81
2023-03-13T02:38:51.588Z,0.91
2023-03-13T02:41:19.872Z,0.98
2023-03-13T02:43:46.422Z,1.03
2023-03-13T02:46:15.887Z,1.12
2023-03-13T02:48:51.395Z,1.24
2023-03-13T02:51:39.679Z,1.36
2023-03-13T02:54:12.152Z,1.41
2023-03-13T02:56:42.830Z,1.45
2023-03-13T02:59:09.589Z,1.47
2023-03-13T03:01:36.138Z,1.35
2023-03-13T03:04:02.764Z,1.31
2023-03-13T03:06:29.325Z,1.27
2023-03-13T03:08:55.913Z,1.31
2023-03-13T03:11:22.514Z,1.31
2023-03-13T03:13:49.085Z,1.30
2023-03-13T03:16:18.736Z,1.27
2023-03-13T03:18:45.372Z,1.27
2023-03-13T03:21:12.265Z,1.21
2023-03-13T03:23:38.949Z,1.08
2023-03-13T03:26:07.139Z,1.07
2023-03-13T03:28:33.994Z,1.03
2023-03-13T03:31:12.322Z,0.97
2023-03-13T03:33:39.922Z,0.84
2023-03-13T03:36:13.826Z,0.70
2023-03-13T03:38:41.434Z,0.58
2023-03-13T03:41:09.529Z,0.52
2023-03-13T03:43:36.288Z,0.53
2023-03-13T03:46:03.700Z,0.51
2023-03-13T03:48:30.454Z,0.34
2023-03-13T03:50:57.073Z,0.30
2023-03-13T03:53:24.358Z,0.27
2023-03-13T03:55:51.035Z,0.21
2023-03-13T03:58:17.876Z,0.13
2023-03-13T04:00:45.803Z,0.04
2023-03-13T04:03:12.876Z,-0.02
2023-03-13T04:05:39.727Z,-0.01
2023-03-13T04:08:07.381Z,0.02
2023-03-13T04:10:34.020Z,-0.12
2023-03-13T04:13:00.588Z,-0.15
2023-03-13T04:15:27.214Z,-0.16
2023-03-13T04:17:53.760Z,-0.03
2023-03-13T04:20:20.403Z,0.12
2023-03-13T04:22:46.967Z,0.07
2023-03-13T04:25:13.522Z,-0.11
2023-03-13T04:27:40.083Z,-0.23
2023-03-13T04:30:07.395Z,-0.23
2023-03-13T04:32:34.155Z,-0.34
2023-03-13T04:35:00.755Z,-0.44
2023-03-13T04:37:27.426Z,-0.43
2023-03-13T04:39:53.949Z,-0.44
2023-03-13T04:42:20.552Z,-0.48
2023-03-13T04:44:47.128Z,-0.49
2023-03-13T04:47:13.773Z,-0.49
2023-03-13T04:49:40.367Z,-0.47
2023-03-13T04:52:07.366Z,-0.46
2023-03-13T04:54:33.903Z,-0.44
2023-03-13T04:57:00.522Z,-0.40
2023-03-13T04:59:27.115Z,-0.43
2023-03-13T05:01:53.674Z,-0.48
2023-03-13T05:04:20.304Z,-0.45
2023-03-13T05:06:46.872Z,-0.43
2023-03-13T05:09:13.432Z,-0.47
2023-03-13T05:11:42.117Z,-0.48
2023-03-13T05:14:11.471Z,-0.43
2023-03-13T05:16:39.174Z,-0.44
2023-03-13T05:19:05.811Z,-0.40
2023-03-13T05:21:32.461Z,-0.31
2023-03-13T05:23:59.064Z,-0.23
2023-03-13T05:26:25.770Z,-0.22
2023-03-13T05:28:52.377Z,-0.24
2023-03-13T05:31:19.022Z,-0.43
2023-03-13T05:33:45.645Z,-0.52
2023-03-13T05:36:12.187Z,-0.56
2023-03-13T05:38:38.867Z,-0.43
2023-03-13T05:41:05.515Z,-0.19
2023-03-13T05:43:32.100Z,-0.07
2023-03-13T05:45:58.779Z,0.05
2023-03-13T05:48:25.380Z,0.17
2023-03-13T05:50:51.909Z,0.28
2023-03-13T05:53:18.458Z,0.34
2023-03-13T05:55:45.041Z,0.50
2023-03-13T05:58:11.584Z,0.53
2023-03-13T06:00:38.203Z,0.65
2023-03-13T06:03:04.760Z,0.91
2023-03-13T06:05:31.310Z,1.19
2023-03-13T06:07:57.843Z,1.47
2023-03-13T06:10:24.418Z,1.70
2023-03-13T06:12:55.897Z,2.03
2023-03-13T06:15:23.576Z,2.42
2023-03-13T06:17:50.226Z,2.75
2023-03-13T06:20:17.156Z,2.96
2023-03-13T06:22:43.834Z,2.56
2023-03-13T06:25:10.588Z,2.58
2023-03-13T06:27:37.165Z,2.47
2023-03-13T06:30:04.453Z,2.38
2023-03-13T06:32:31.116Z,2.28
2023-03-13T06:34:57.742Z,2.24
2023-03-13T06:37:24.309Z,1.96
2023-03-13T06:39:51.002Z,1.81
2023-03-13T06:42:17.560Z,1.78
2023-03-13T06:44:44.841Z,1.83
2023-03-13T06:47:13.557Z,2.10
2023-03-13T06:49:40.939Z,2.22
2023-03-13T06:52:07.493Z,2.42
2023-03-13T06:54:34.120Z,2.59
2023-03-13T06:57:00.643Z,2.63
2023-03-13T06:59:27.349Z,2.49
2023-03-13T07:01:53.914Z,2.59
2023-03-13T07:04:20.779Z,2.65
2023-03-13T07:06:47.385Z,2.61
2023-03-13T07:09:13.978Z,2.63
2023-03-13T07:11:40.516Z,2.76
2023-03-13T07:14:16.347Z,3.04
2023-03-13T07:16:44.980Z,3.34
2023-03-13T07:19:11.617Z,3.40
2023-03-13T07:21:38.248Z,3.47
2023-03-13T07:24:05.194Z,3.69
2023-03-13T07:26:31.933Z,3.78
2023-03-13T07:28:58.751Z,3.87
2023-03-13T07:31:25.809Z,3.89
2023-03-13T07:33:56.580Z,4.13
2023-03-13T07:36:23.740Z,4.01
2023-03-13T07:38:50.943Z,4.26
2023-03-13T07:41:18.634Z,4.03
2023-03-13T07:43:46.047Z,4.07
2023-03-13T07:46:15.224Z,3.92
2023-03-13T07:48:43.274Z,3.79
2023-03-13T07:51:19.636Z,3.74
2023-03-13T07:53:50.763Z,3.75
2023-03-13T07:56:20.743Z,4.03
2023-03-13T07:58:48.070Z,4.25
2023-03-13T08:01:17.734Z,4.44
2023-03-13T08:03:45.481Z,4.61
2023-03-13T08:06:19.745Z,4.69
2023-03-13T08:08:46.757Z,4.61
2023-03-13T08:11:27.039Z,4.61
2023-03-13T08:13:54.580Z,4.38
2023-03-13T08:16:23.365Z,4.41
2023-03-13T08:18:52.354Z,4.47
2023-03-13T08:21:27.003Z,4.38
2023-03-13T08:23:55.440Z,4.42
2023-03-13T08:26:23.307Z,4.53
2023-03-13T08:28:54.360Z,4.55
2023-03-13T08:31:26.671Z,4.83
2023-03-13T08:33:53.916Z,5.23
2023-03-13T08:36:20.870Z,5.85
2023-03-13T08:38:48.224Z,6.18
2023-03-13T08:41:20.124Z,5.94
2023-03-13T08:43:47.221Z,5.71
2023-03-13T08:46:17.182Z,5.75
2023-03-13T08:48:45.056Z,5.89
2023-03-13T08:51:14.217Z,6.10
2023-03-13T08:53:42.959Z,6.29
2023-03-13T08:56:11.792Z,6.65
2023-03-13T08:58:38.740Z,6.82
2023-03-13T09:01:10.968Z,7.08
2023-03-13T09:03:38.827Z,7.51
2023-03-13T09:06:06.451Z,7.43
2023-03-13T09:08:33.323Z,7.33
2023-03-13T09:11:05.648Z,7.01
2023-03-13T09:13:34.701Z,6.95
2023-03-13T09:16:07.440Z,6.95
2023-03-13T09:18:34.794Z,6.91
2023-03-13T09:21:01.911Z,7.15
2023-03-13T09:23:28.461Z,7.18
2023-03-13T09:25:57.383Z,7.16
2023-03-13T09:28:25.647Z,7.15
2023-03-13T09:30:53.542Z,7.24
2023-03-13T09:33:23.906Z,7.27
2023-03-13T09:35:51.243Z,7.31
2023-03-13T09:38:19.953Z,7.27
2023-03-13T09:41:05.296Z,7.33
2023-03-13T09:44:08.761Z,7.32
2023-03-13T09:47:01.835Z,7.39
2023-03-13T09:49:42.534Z,7.47
2023-03-13T09:52:31.737Z,7.69
2023-03-13T09:55:12.556Z,7.89
2023-03-13T09:58:05.282Z,8.03
2023-03-13T10:00:38.875Z,8.13
2023-03-13T10:03:13.559Z,8.22
2023-03-13T10:05:48.001Z,8.24
2023-03-13T10:08:20.265Z,8.35
2023-03-13T10:10:59.279Z,8.43
2023-03-13T10:13:39.920Z,8.50
2023-03-13T10:16:19.373Z,8.66
2023-03-13T10:18:53.000Z,8.70
2023-03-13T10:21:22.859Z,8.95
2023-03-13T10:23:57.962Z,9.28
2023-03-13T10:26:30.177Z,9.59
2023-03-13T10:29:16.735Z,9.83
2023-03-13T10:31:51.727Z,9.90
2023-03-13T10:34:18.312Z,9.99
2023-03-13T10:36:56.880Z,9.90
2023-03-13T10:39:25.972Z,9.98
2023-03-13T10:41:59.970Z,10.37
2023-03-13T10:44:32.990Z,10.72
2023-03-13T10:47:02.732Z,11.32
2023-03-13T10:49:31.480Z,11.77
2023-03-13T10:52:03.940Z,12.00
2023-03-13T10:54:35.289Z,12.18
2023-03-13T10:57:19.094Z,12.11
2023-03-13T10:59:47.703Z,12.42
2023-03-13T11:02:38.897Z,12.56
2023-03-13T11:05:23.843Z,12.82
2023-03-13T11:07:50.925Z,12.84
2023-03-13T11:10:21.745Z,13.13
2023-03-13T11:12:53.589Z,13.17
2023-03-13T11:15:26.008Z,13.28
2023-03-13T11:18:19.390Z,13.16
2023-03-13T11:20:47.163Z,13.18
2023-03-13T11:23:40.970Z,13.20
2023-03-13T11:26:16.466Z,13.35
2023-03-13T11:29:22.266Z,13.72
2023-03-13T11:31:59.349Z,13.88
2023-03-13T11:34:43.469Z,13.90
2023-03-13T11:37:13.641Z,13.96
2023-03-13T11:40:08.481Z,13.84
2023-03-13T11:42:59.301Z,13.91
2023-03-13T11:45:39.401Z,13.62
2023-03-13T11:48:09.666Z,13.77
2023-03-13T11:50:45.043Z,13.52
2023-03-13T11:53:23.714Z,13.32
2023-03-13T11:55:56.668Z,13.35
2023-03-13T11:58:43.174Z,12.92
2023-03-13T12:01:33.720Z,12.70
2023-03-13T12:04:15.744Z,12.27
2023-03-13T12:06:54.992Z,12.41
2023-03-13T12:09:36.747Z,12.39
2023-03-13T12:12:10.866Z,12.25
2023-03-13T12:14:44.575Z,12.05
2023-03-13T12:17:20.552Z,12.04
2023-03-13T12:19:49.898Z,11.88
2023-03-13T12:23:06.226Z,11.96
2023-03-13T12:25:55.623Z,11.75
2023-03-13T12:28:39.905Z,11.58
2023-03-13T12:31:25.271Z,11.52
2023-03-13T12:34:02.296Z,11.33
2023-03-13T12:36:53.590Z,11.36
2023-03-13T12:39:25.982Z,11.34
2023-03-13T12:42:19.545Z,11.82
2023-03-13T12:44:46.887Z,12.02
2023-03-13T12:47:47.610Z,12.06
2023-03-13T12:50:33.328Z,12.06
2023-03-13T12:53:05.990Z,12.05
2023-03-13T12:55:59.407Z,11.96
2023-03-13T12:58:48.909Z,11.87
2023-03-13T13:01:24.605Z,11.92
2023-03-13T13:03:58.027Z,11.89
2023-03-13T13:06:28.588Z,11.72
2023-03-13T13:08:55.172Z,11.62
2023-03-13T13:11:33.918Z,11.63
2023-03-13T13:14:19.185Z,11.62
2023-03-13T13:16:49.332Z,11.70
2023-03-13T13:19:24.782Z,11.66
2023-03-13T13:22:29.007Z,11.60
2023-03-13T13:24:57.164Z,11.52
2023-03-13T13:27:32.676Z,11.69
2023-03-13T13:30:01.030Z,11.88
2023-03-13T13:32:36.975Z,12.01
2023-03-13T13:35:18.712Z,12.06
2023-03-13T13:37:48.911Z,12.09
2023-03-13T13:40:15.919Z,12.12
2023-03-13T13:42:52.127Z,12.11
2023-03-13T13:45:31.797Z,12.15
2023-03-13T13:48:43.274Z,12.12
2023-03-13T13:51:14.106Z,12.03
2023-03-13T13:54:12.757Z,12.11
2023-03-13T13:56:47.222Z,12.03
2023-03-13T13:59:27.229Z,12.04
2023-03-13T14:02:24.836Z,11.95
2023-03-13T14:04:53.903Z,11.78
2023-03-13T14:07:57.911Z,11.65
2023-03-13T14:10:36.322Z,11.44
2023-03-13T14:13:11.507Z,11.19
2023-03-13T14:15:42.483Z,11.16
2023-03-13T14:18:14.324Z,11.32
2023-03-13T14:20:57.918Z,11.35
2023-03-13T14:23:42.040Z,11.50
2023-03-13T14:26:16.203Z,11.53
2023-03-13T14:28:45.840Z,11.61
2023-03-13T14:31:26.661Z,11.61
2023-03-13T14:33:53.978Z,11.31
2023-03-13T14:36:20.690Z,11.02
2023-03-13T14:39:00.297Z,10.76
2023-03-13T14:41:31.179Z,10.68
2023-03-13T14:44:14.422Z,10.60
2023-03-13T14:46:43.547Z,10.56
2023-03-13T14:49:20.819Z,10.46
2023-03-13T14:52:01.836Z,10.44
2023-03-13T14:54:37.326Z,10.46
2023-03-13T14:57:16.775Z,10.48
2023-03-13T14:59:43.857Z,10.48
2023-03-13T15:02:22.534Z,10.57
2023-03-13T15:04:51.244Z,10.48
2023-03-13T15:07:18.740Z,10.41
2023-03-13T15:09:46.968Z,10.48
2023-03-13T15:12:16.729Z,10.37
2023-03-13T15:14:48.958Z,10.33
2023-03-13T15:17:19.052Z,10.36
2023-03-13T15:19:50.255Z,10.36
2023-03-13T15:22:18.627Z,10.42
2023-03-13T15:24:59.553Z,10.43
2023-03-13T15:27:31.432Z,10.37
2023-03-13T15:29:58.039Z,10.36
2023-03-13T15:32:37.150Z,10.30
2023-03-13T15:35:27.629Z,10.22
2023-03-13T15:37:54.824Z,10.17
2023-03-13T15:40:21.810Z,10.12
2023-03-13T15:42:48.379Z,10.04
2023-03-13T15:45:14.997Z,9.99
2023-03-13T15:47:41.597Z,9.93
2023-03-13T15:50:19.341Z,9.82
2023-03-13T15:52:46.461Z,9.80
2023-03-13T15:55:13.732Z,9.77
2023-03-13T15:57:45.496Z,9.71
2023-03-13T16:00:16.838Z,9.67
2023-03-13T16:02:43.403Z,9.60
2023-03-13T16:05:10.211Z,9.51
2023-03-13T16:07:36.906Z,9.48
2023-03-13T16:10:05.495Z,9.38
2023-03-13T16:12:32.148Z,9.31
2023-03-13T16:14:58.719Z,9.24
2023-03-13T16:17:28.266Z,9.10
2023-03-13T16:19:55.717Z,8.91
2023-03-13T16:22:22.368Z,8.72
2023-03-13T16:24:48.921Z,8.57
2023-03-13T16:27:17.486Z,8.45
2023-03-13T16:29:45.388Z,8.27
2023-03-13T16:32:14.680Z,8.18
2023-03-13T16:34:41.561Z,8.06
2023-03-13T16:37:16.703Z,8.03
2023-03-13T16:39:44.206Z,8.00
2023-03-13T16:42:11.514Z,7.94
2023-03-13T16:44:38.785Z,7.86
2023-03-13T16:47:35.612Z,7.81
2023-03-13T16:50:04.148Z,7.79
2023-03-13T16:52:30.714Z,7.73
2023-03-13T16:54:57.350Z,7.66
2023-03-13T16:57:25.032Z,7.62
2023-03-13T16:59:51.904Z,7.55
2023-03-13T17:02:20.674Z,7.47
2023-03-13T17:04:48.189Z,7.37
2023-03-13T17:07:19.341Z,7.24
2023-03-13T17:09:46.591Z,7.15
2023-03-13T17:12:13.258Z,7.06
2023-03-13T17:14:39.948Z,7.12
2023-03-13T17:17:06.855Z,7.09
2023-03-13T17:19:33.503Z,6.95
2023-03-13T17:22:00.123Z,6.90
2023-03-13T17:24:26.648Z,6.82
2023-03-13T17:26:53.280Z,6.76
2023-03-13T17:29:19.888Z,6.76
2023-03-13T17:31:46.498Z,6.82
2023-03-13T17:34:13.173Z,6.75
2023-03-13T17:36:40.053Z,6.70
2023-03-13T17:39:08.880Z,6.65
2023-03-13T17:41:35.784Z,6.65
2023-03-13T17:44:03.965Z,6.72
2023-03-13T17:46:34.128Z,6.79
2023-03-13T17:49:01.778Z,6.73
2023-03-13T17:51:31.488Z,6.61
2023-03-13T17:53:59.060Z,6.57
2023-03-13T17:56:31.567Z,6.53
2023-03-13T17:59:00.259Z,6.51
2023-03-13T18:01:30.092Z,6.37
2023-03-13T18:03:57.719Z,6.26
2023-03-13T18:06:27.242Z,6.16
2023-03-13T18:09:02.982Z,6.07
2023-03-13T18:11:29.558Z,6.10
2023-03-13T18:13:56.359Z,6.18
2023-03-13T18:16:37.458Z,6.16
2023-03-13T18:19:05.846Z,6.09
2023-03-13T18:21:32.599Z,6.15
2023-03-13T18:23:59.461Z,6.16
2023-03-13T18:26:31.138Z,6.14
2023-03-13T18:29:01.552Z,6.15
2023-03-13T18:31:30.396Z,6.17
2023-03-13T18:33:58.820Z,6.09
2023-03-13T18:36:26.668Z,6.02
2023-03-13T18:38:54.140Z,5.97
2023-03-13T18:41:20.785Z,5.94
2023-03-13T18:43:48.138Z,5.98
2023-03-13T18:46:14.990Z,6.02
2023-03-13T18:48:41.551Z,5.91
2023-03-13T18:51:12.469Z,5.80
2023-03-13T18:53:42.275Z,5.79
2023-03-13T18:56:32.795Z,5.71
2023-03-13T18:59:00.447Z,5.70
2023-03-13T19:01:29.806Z,5.70
2023-03-13T19:03:57.801Z,5.60
2023-03-13T19:06:27.569Z,5.42
2023-03-13T19:09:03.098Z,5.46
2023-03-13T19:11:31.914Z,5.60
2023-03-13T19:13:58.909Z,5.68
2023-03-13T19:16:38.608Z,5.65
2023-03-13T19:19:16.644Z,5.63
2023-03-13T19:21:43.466Z,5.53
2023-03-13T19:24:10.086Z,5.52
2023-03-13T19:26:39.829Z,5.50
2023-03-13T19:29:15.396Z,5.58
2023-03-13T19:31:42.193Z,5.53
2023-03-13T19:34:09.211Z,5.46
2023-03-13T19:36:38.724Z,5.46
2023-03-13T19:39:12.053Z,5.63
2023-03-13T19:41:38.665Z,5.63
2023-03-13T19:44:05.266Z,5.74
2023-03-13T19:46:31.870Z,5.82
2023-03-13T19:49:00.563Z,5.85
2023-03-13T19:51:29.054Z,5.80
2023-03-13T19:53:57.213Z,5.76
2023-03-13T19:56:29.978Z,5.67
2023-03-13T19:59:20.782Z,5.53
2023-03-13T20:01:47.982Z,5.52
2023-03-13T20:04:15.456Z,5.45
2023-03-13T20:06:43.168Z,5.42
2023-03-13T20:09:16.576Z,5.42
2023-03-13T20:11:43.795Z,5.38
2023-03-13T20:14:11.101Z,5.31
2023-03-13T20:16:38.271Z,5.21
2023-03-13T20:19:05.420Z,5.15
2023-03-13T20:21:34.834Z,4.87
2023-03-13T20:24:02.233Z,4.80
2023-03-13T20:26:29.446Z,4.92
2023-03-13T20:28:56.810Z,5.02
2023-03-13T20:31:26.111Z,5.01
2023-03-13T20:33:52.800Z,4.98
2023-03-13T20:36:20.824Z,4.94
2023-03-13T20:38:47.795Z,4.95
2023-03-13T20:41:16.305Z,4.85
2023-03-13T20:43:43.346Z,4.81
2023-03-13T20:46:10.004Z,4.80
2023-03-13T20:48:41.637Z,4.77
2023-03-13T20:51:09.241Z,4.74
2023-03-13T20:53:38.174Z,4.69
2023-03-13T20:56:07.048Z,4.66
2023-03-13T20:58:34.511Z,4.67
2023-03-13T21:01:02.144Z,4.60
2023-03-13T21:03:28.837Z,4.50
2023-03-13T21:05:55.434Z,4.44
2023-03-13T21:08:22.667Z,4.34
2023-03-13T21:10:49.231Z,4.19
2023-03-13T21:13:15.834Z,4.04
2023-03-13T21:15:42.469Z,3.98
2023-03-13T21:18:09.047Z,3.99
2023-03-13T21:20:37.311Z,3.95
2023-03-13T21:23:03.938Z,3.94
2023-03-13T21:25:30.502Z,3.95
2023-03-13T21:27:57.119Z,3.99
2023-03-13T21:30:24.385Z,4.05
2023-03-13T21:32:51.051Z,3.94
2023-03-13T21:35:17.830Z,3.94
2023-03-13T21:37:44.440Z,4.02
2023-03-13T21:40:12.060Z,3.97
2023-03-13T21:42:38.909Z,3.91
2023-03-13T21:45:07.005Z,3.86
2023-03-13T21:47:36.997Z,3.74
2023-03-13T21:50:06.109Z,3.68
2023-03-13T21:52:34.422Z,3.77
2023-03-13T21:55:03.506Z,3.75
2023-03-13T21:57:30.063Z,3.73
2023-03-13T21:59:56.666Z,3.70
2023-03-13T22:02:23.269Z,3.56
2023-03-13T22:04:49.843Z,3.54
2023-03-13T22:07:16.392Z,3.49
2023-03-13T22:09:42.934Z,3.50
2023-03-13T22:12:09.564Z,3.53
2023-03-13T22:14:36.266Z,3.48
2023-03-13T22:17:02.867Z,3.37
2023-03-13T22:19:29.433Z,3.31
2023-03-13T22:21:55.988Z,3.31
2023-03-13T22:24:22.678Z,3.30
2023-03-13T22:26:49.333Z,3.34
2023-03-13T22:29:16.339Z,3.40
2023-03-13T22:31:42.905Z,3.39
2023-03-13T22:34:09.506Z,3.38
2023-03-13T22:36:37.864Z,3.35
2023-03-13T22:39:04.373Z,3.36
2023-03-13T22:41:30.899Z,3.45
2023-03-13T22:43:57.553Z,3.50
2023-03-13T22:46:24.499Z,3.58
2023-03-13T22:48:51.110Z,3.64
2023-03-13T22:51:17.811Z,3.63
2023-03-13T22:53:44.399Z,3.65
2023-03-13T22:56:12.331Z,3.72
2023-03-13T22:58:40.520Z,3.76
2023-03-13T23:01:16.985Z,3.82
2023-03-13T23:03:44.772Z,3.91
2023-03-13T23:06:19.038Z,3.93
2023-03-13T23:08:46.385Z,3.92
2023-03-13T23:11:13.494Z,3.95
2023-03-13T23:13:40.586Z,3.97
2023-03-13T23:16:09.154Z,4.02
2023-03-13T23:18:36.819Z,4.08
2023-03-13T23:21:08.991Z,4.10
2023-03-13T23:23:35.882Z,4.08
2023-03-13T23:26:04.375Z,3.99
2023-03-13T23:28:31.002Z,3.90
2023-03-13T23:30:57.561Z,3.94
2023-03-13T23:33:24.333Z,3.98
2023-03-13T23:35:50.989Z,3.91
2023-03-13T23:38:20.653Z,3.77
2023-03-13T23:40:47.296Z,3.63
2023-03-13T23:43:13.850Z,3.57
2023-03-13T23:45:40.409Z,3.52
2023-03-13T23:48:06.977Z,3.68
2023-03-13T23:50:33.599Z,3.70
2023-03-13T23:53:00.147Z,3.76
2023-03-13T23:55:26.708Z,3.71
2023-03-13T23:57:53.611Z,3.61
